Time;durP1;ratioP1;P1;durP2;ratioP2;P2;SDS_P1;SDS_P2;PMS_P1;PMS_P2;Temp;Humidity;BMP_temperature;BMP_pressure;BME280_temperature;BME280_humidity;BME280_pressure;Samples;Min_cycle;Max_cycle;Signal;HPM_P1;HPM_P2
2023/07/15 00:00:12;;;;;;;12.60;7.28;;;;;;;24.60;86.00;94852.44;5089386;28;20190;-44
2023/07/15 00:02:39;;;;;;;7.65;6.70;;;;;;;24.58;86.24;94851.09;5089465;28;20185;-43
2023/07/15 00:05:17;;;;;;;10.85;6.88;;;;;;;24.56;86.80;94851.28;5089196;28;20712;-44
2023/07/15 00:07:43;;;;;;;7.78;6.57;;;;;;;24.59;87.04;94856.09;5089606;28;20576;-46
2023/07/15 00:10:10;;;;;;;9.98;6.57;;;;;;;24.58;86.67;94856.31;5089119;28;20692;-45
2023/07/15 00:12:37;;;;;;;8.50;6.70;;;;;;;24.54;86.64;94853.34;5089451;28;20197;-45
2023/07/15 00:15:05;;;;;;;11.52;6.60;;;;;;;24.54;87.16;94845.50;5089062;28;20213;-43
2023/07/15 00:17:32;;;;;;;10.18;6.45;;;;;;;24.50;86.85;94857.41;5091801;28;20268;-43
2023/07/15 00:19:59;;;;;;;11.50;7.15;;;;;;;24.41;87.30;94843.06;5093003;28;20590;-42
2023/07/15 00:22:27;;;;;;;9.73;6.35;;;;;;;24.39;86.91;94848.47;5093364;28;20189;-44
2023/07/15 00:24:54;;;;;;;7.70;6.60;;;;;;;24.38;86.89;94843.47;5093111;28;20201;-44
2023/07/15 00:27:20;;;;;;;13.25;6.65;;;;;;;24.34;87.39;94845.69;5093228;28;20251;-43
2023/07/15 00:29:47;;;;;;;8.05;7.25;;;;;;;24.29;87.57;94848.19;5092820;28;20228;-44
2023/07/15 00:32:15;;;;;;;7.25;6.55;;;;;;;24.32;87.32;94849.56;5092949;28;20194;-44
2023/07/15 00:34:42;;;;;;;17.38;7.35;;;;;;;24.24;87.40;94843.59;5092762;28;20193;-44
2023/07/15 00:37:09;;;;;;;7.93;6.53;;;;;;;24.16;88.16;94846.50;5093313;28;20193;-43
2023/07/15 00:39:40;;;;;;;7.32;6.63;;;;;;;24.16;88.18;94845.72;5092952;28;20193;-44
2023/07/15 00:42:11;;;;;;;8.27;6.63;;;;;;;24.15;88.49;94851.97;5093808;28;20248;-44
2023/07/15 00:44:37;;;;;;;8.45;6.63;;;;;;;24.11;88.19;94856.81;5092332;28;20575;-44
2023/07/15 00:47:26;;;;;;;9.02;6.53;;;;;;;24.08;89.03;94856.44;5092737;28;20197;-44
2023/07/15 00:49:54;;;;;;;12.00;7.15;;;;;;;24.00;88.69;94847.88;5092483;28;20200;-44
2023/07/15 00:52:21;;;;;;;7.70;6.75;;;;;;;24.03;89.25;94857.09;5092823;28;20665;-44
2023/07/15 00:54:52;;;;;;;8.05;6.38;;;;;;;23.99;88.92;94859.34;5092444;28;20674;-44
2023/07/15 00:57:20;;;;;;;7.50;6.65;;;;;;;23.95;89.32;94854.78;5092658;28;20193;-44
2023/07/15 00:59:48;;;;;;;8.50;6.90;;;;;;;23.96;89.79;94864.19;5092507;28;20196;-45
2023/07/15 01:02:17;;;;;;;10.23;6.90;;;;;;;23.96;89.77;94869.44;5092597;28;20715;-43
2023/07/15 01:04:43;;;;;;;10.15;6.68;;;;;;;23.94;89.88;94864.44;5092326;28;20209;-43
2023/07/15 01:07:10;;;;;;;9.52;6.68;;;;;;;23.88;90.00;94856.66;5092333;28;20197;-44
2023/07/15 01:09:37;;;;;;;12.70;7.55;;;;;;;23.86;89.98;94859.47;5092395;28;20303;-44
2023/07/15 01:12:05;;;;;;;8.43;6.55;;;;;;;23.88;89.90;94854.84;5091843;28;20202;-45
2023/07/15 01:14:31;;;;;;;8.68;7.45;;;;;;;23.89;89.75;94866.91;5092389;28;20201;-44
2023/07/15 01:16:58;;;;;;;11.40;7.78;;;;;;;23.91;89.77;94866.66;5092117;28;20201;-43
2023/07/15 01:19:27;;;;;;;9.13;7.53;;;;;;;23.90;89.95;94865.88;5092424;28;20194;-44
2023/07/15 01:21:54;;;;;;;8.20;7.35;;;;;;;23.87;89.96;94863.69;5073771;28;20200;-44
2023/07/15 01:24:25;;;;;;;15.02;6.97;;;;;;;23.87;90.49;94868.13;5092080;28;20197;-44
2023/07/15 01:26:56;;;;;;;8.52;7.07;;;;;;;23.72;90.52;94847.56;5091751;28;20284;-45
2023/07/15 01:29:23;;;;;;;9.30;7.20;;;;;;;23.83;91.07;94872.97;5091085;28;20234;-44
2023/07/15 01:31:50;;;;;;;13.45;7.80;;;;;;;23.36;90.67;94794.25;5091844;28;20666;-43
2023/07/15 01:34:19;;;;;;;9.77;7.05;;;;;;;23.80;90.60;94870.81;5091795;28;20193;-43
2023/07/15 01:36:46;;;;;;;8.07;7.28;;;;;;;23.79;90.62;94869.19;5091797;28;20185;-44
2023/07/15 01:39:13;;;;;;;11.18;7.07;;;;;;;23.76;91.16;94873.03;5091886;28;20189;-43
2023/07/15 01:41:41;;;;;;;12.55;7.45;;;;;;;23.75;91.04;94873.28;5091438;28;20741;-44
2023/07/15 01:44:07;;;;;;;8.23;7.03;;;;;;;23.72;91.28;94869.25;5091702;28;20285;-43
2023/07/15 01:46:38;;;;;;;9.45;7.53;;;;;;;23.68;91.40;94875.13;5091446;28;20676;-45
2023/07/15 01:49:05;;;;;;;11.05;7.95;;;;;;;23.65;91.39;94868.50;5091693;28;20249;-43
2023/07/15 01:51:32;;;;;;;10.68;7.32;;;;;;;23.62;91.80;94875.94;5091462;28;20547;-43
2023/07/15 01:53:58;;;;;;;10.85;7.80;;;;;;;23.59;91.53;94866.75;5091527;28;20193;-45
2023/07/15 01:56:25;;;;;;;10.55;7.13;;;;;;;23.58;91.93;94869.56;5091630;28;20197;-44
2023/07/15 01:58:53;;;;;;;9.38;7.70;;;;;;;23.56;92.04;94874.19;5091531;28;20201;-44
2023/07/15 02:01:20;;;;;;;11.82;8.30;;;;;;;23.53;92.12;94868.41;5091481;28;20189;-45
2023/07/15 02:03:47;;;;;;;8.18;7.38;;;;;;;23.50;92.27;94871.44;5091159;28;20193;-45
2023/07/15 02:06:14;;;;;;;12.90;7.47;;;;;;;23.49;92.51;94869.03;5091334;28;20193;-45
2023/07/15 02:08:41;;;;;;;16.17;7.53;;;;;;;23.45;92.92;94862.66;5090824;28;20861;-43
2023/07/15 02:11:08;;;;;;;10.50;7.28;;;;;;;23.43;93.11;94870.66;5091130;28;20194;-45
2023/07/15 02:13:35;;;;;;;9.10;8.10;;;;;;;23.43;92.82;94873.28;5091006;28;20190;-43
2023/07/15 02:16:03;;;;;;;9.43;7.30;;;;;;;23.42;92.95;94869.06;5091242;28;20223;-43
2023/07/15 02:18:30;;;;;;;8.88;7.63;;;;;;;23.21;92.98;94843.34;5091001;28;20193;-45
2023/07/15 02:20:57;;;;;;;7.97;6.85;;;;;;;23.41;93.47;94874.53;5090939;28;20186;-44
2023/07/15 02:23:23;;;;;;;10.10;7.13;;;;;;;23.39;93.36;94868.69;5090856;28;20201;-43
2023/07/15 02:25:50;;;;;;;8.38;7.25;;;;;;;23.37;93.47;94874.16;5090846;28;20186;-44
2023/07/15 02:28:17;;;;;;;9.65;7.65;;;;;;;23.35;93.51;94868.31;5090640;28;20738;-44
2023/07/15 02:30:44;;;;;;;8.93;7.50;;;;;;;23.36;93.77;94876.94;5090980;28;20225;-44
2023/07/15 02:33:12;;;;;;;9.63;7.15;;;;;;;23.36;93.86;94874.34;5091138;28;20189;-44
2023/07/15 02:35:40;;;;;;;15.57;7.75;;;;;;;23.32;94.19;94867.97;5090545;28;20288;-45
2023/07/15 02:38:07;;;;;;;10.25;8.52;;;;;;;23.40;93.75;94881.56;5090812;28;20221;-44
2023/07/15 02:40:34;;;;;;;13.07;8.02;;;;;;;23.35;93.73;94883.19;5090438;28;20189;-44
2023/07/15 02:43:00;;;;;;;11.40;7.38;;;;;;;23.29;94.06;94879.63;5090780;28;20289;-44
2023/07/15 02:45:27;;;;;;;9.98;7.18;;;;;;;23.18;94.00;94864.63;5090498;28;20197;-45
2023/07/15 02:47:54;;;;;;;8.57;7.63;;;;;;;23.18;93.66;94872.47;5090510;28;20221;-44
2023/07/15 02:50:22;;;;;;;10.52;8.07;;;;;;;23.10;94.24;94876.16;5090527;28;20283;-46
2023/07/15 02:52:49;;;;;;;13.23;8.38;;;;;;;23.09;94.22;94889.38;5090547;28;20221;-44
2023/07/15 02:55:16;;;;;;;9.13;8.10;;;;;;;23.04;94.41;94877.75;5090148;28;20591;-44
2023/07/15 02:57:43;;;;;;;10.82;8.15;;;;;;;23.07;94.20;94886.19;5090570;28;20548;-44
2023/07/15 03:00:14;;;;;;;12.13;7.82;;;;;;;23.01;94.10;94886.03;5090501;28;20633;-43
2023/07/15 03:02:44;;;;;;;12.13;8.45;;;;;;;22.96;94.57;94880.63;5090186;28;20198;-44
2023/07/15 03:05:11;;;;;;;9.15;7.50;;;;;;;22.94;95.02;94884.47;5089922;28;20289;-43
2023/07/15 03:07:44;;;;;;;11.23;8.07;;;;;;;22.93;95.09;94886.28;5090065;28;20185;-44
2023/07/15 03:10:12;;;;;;;13.75;8.35;;;;;;;22.82;94.80;94868.66;5090433;28;20193;-45
2023/07/15 03:12:39;;;;;;;8.15;7.35;;;;;;;22.93;94.96;94883.66;5090332;28;20197;-43
2023/07/15 03:15:07;;;;;;;10.40;7.00;;;;;;;22.99;95.02;94897.69;5090009;28;20759;-44
2023/07/15 03:17:35;;;;;;;12.07;8.13;;;;;;;22.99;94.95;94895.06;5089932;28;20273;-45
2023/07/15 03:20:04;;;;;;;10.10;8.63;;;;;;;22.91;95.30;94890.88;5089984;28;20573;-45
2023/07/15 03:22:31;;;;;;;12.68;8.38;;;;;;;22.89;95.34;94894.69;5089930;28;20559;-44
2023/07/15 03:24:59;;;;;;;8.88;7.95;;;;;;;22.88;95.21;94891.28;5089803;28;20189;-43
2023/07/15 03:27:26;;;;;;;15.98;8.90;;;;;;;22.90;95.02;94899.72;5089674;28;20250;-44
2023/07/15 03:29:54;;;;;;;13.02;8.55;;;;;;;22.91;95.19;94890.88;5089548;28;20720;-43
2023/07/15 03:32:22;;;;;;;15.75;8.20;;;;;;;22.93;95.20;94894.09;5089406;28;20194;-45
2023/07/15 03:34:49;;;;;;;9.32;7.80;;;;;;;22.98;94.93;94893.47;5089774;28;20201;-46
2023/07/15 03:37:16;;;;;;;14.98;7.70;;;;;;;23.00;94.43;94891.44;5089598;28;20197;-45
2023/07/15 03:39:43;;;;;;;12.07;8.52;;;;;;;22.99;94.65;94882.81;5089986;28;20200;-44
2023/07/15 03:42:12;;;;;;;10.00;7.80;;;;;;;23.07;94.58;94887.00;5089600;28;20190;-45
2023/07/15 03:44:38;;;;;;;12.70;8.35;;;;;;;23.10;94.13;94886.59;5089617;28;20217;-42
2023/07/15 03:47:05;;;;;;;10.43;8.32;;;;;;;23.19;94.00;94887.13;5089635;28;20193;-43
2023/07/15 03:49:32;;;;;;;10.60;7.60;;;;;;;23.23;93.89;94878.66;5089583;28;20229;-45
2023/07/15 03:51:59;;;;;;;14.15;8.85;;;;;;;23.27;93.24;94877.22;5093403;28;20668;-44
2023/07/15 03:54:26;;;;;;;9.07;8.07;;;;;;;23.29;92.91;94877.81;5096583;28;20197;-45
2023/07/15 03:56:53;;;;;;;13.77;8.90;;;;;;;23.40;92.52;94886.78;5096372;28;20312;-44
2023/07/15 03:59:21;;;;;;;15.90;8.80;;;;;;;23.44;92.67;94887.94;5096171;28;20204;-45
2023/07/15 04:01:47;;;;;;;11.15;7.97;;;;;;;23.43;92.64;94894.16;5096221;28;20679;-44
2023/07/15 04:04:14;;;;;;;17.50;9.00;;;;;;;23.45;92.39;94893.97;5095856;28;20262;-43
2023/07/15 04:06:41;;;;;;;9.77;7.45;;;;;;;23.46;92.10;94892.94;5096293;28;20189;-44
2023/07/15 04:09:11;;;;;;;10.30;7.68;;;;;;;23.45;92.06;94899.19;5095920;28;20247;-44
2023/07/15 04:11:39;;;;;;;11.68;8.82;;;;;;;23.36;91.48;94877.78;5096563;28;20211;-43
2023/07/15 04:14:06;;;;;;;12.68;7.70;;;;;;;23.51;91.36;94911.38;5095998;28;20551;-44
2023/07/15 04:16:34;;;;;;;12.32;7.55;;;;;;;23.48;91.74;94912.59;5096257;28;20186;-45
2023/07/15 04:19:01;;;;;;;11.68;7.65;;;;;;;23.49;91.22;94921.25;5095841;28;20189;-42
2023/07/15 04:21:27;;;;;;;10.43;7.68;;;;;;;23.57;90.97;94920.97;5096413;28;20200;-46
2023/07/15 04:23:54;;;;;;;13.02;7.82;;;;;;;23.60;90.85;94927.59;5096482;28;20194;-44
2023/07/15 04:26:22;;;;;;;10.07;7.43;;;;;;;23.59;90.95;94923.38;5096228;28;20223;-44
2023/07/15 04:28:49;;;;;;;10.13;8.57;;;;;;;23.56;91.09;94914.16;5095848;28;20255;-44
2023/07/15 04:31:16;;;;;;;10.07;8.23;;;;;;;23.68;91.03;94929.97;5096077;28;20613;-44
2023/07/15 04:33:45;;;;;;;8.93;7.95;;;;;;;23.65;91.19;94925.97;5096102;28;20190;-44
2023/07/15 04:36:12;;;;;;;14.82;8.90;;;;;;;23.76;90.97;94927.09;5096037;28;20197;-43
2023/07/15 04:38:39;;;;;;;9.40;8.50;;;;;;;23.81;90.57;94929.06;5096179;28;20683;-43
2023/07/15 04:41:07;;;;;;;12.10;8.40;;;;;;;23.80;90.72;94930.09;5095767;28;20260;-46
2023/07/15 04:43:34;;;;;;;9.27;8.07;;;;;;;23.89;90.45;94934.03;5096054;28;20193;-44
2023/07/15 04:46:01;;;;;;;12.77;9.07;;;;;;;23.98;89.85;94936.13;5095753;28;20579;-44
2023/07/15 04:48:28;;;;;;;12.50;7.88;;;;;;;24.03;89.06;94928.44;5095836;28;20213;-43
2023/07/15 04:50:56;;;;;;;13.55;8.45;;;;;;;24.05;89.39;94938.72;5095830;28;20198;-43
2023/07/15 04:53:23;;;;;;;11.40;8.75;;;;;;;24.04;89.06;94924.81;5096022;28;20209;-45
2023/07/15 04:55:50;;;;;;;10.95;8.23;;;;;;;24.25;88.17;94934.06;5095559;28;20201;-44
2023/07/15 04:58:18;;;;;;;12.27;9.05;;;;;;;24.23;87.45;94920.44;5095796;28;20266;-44
2023/07/15 05:00:45;;;;;;;11.30;8.38;;;;;;;24.35;87.30;94927.53;5095499;28;20198;-46
2023/07/15 05:03:12;;;;;;;11.45;8.30;;;;;;;24.34;87.38;94926.72;5092744;28;20599;-46
2023/07/15 05:05:39;;;;;;;10.73;8.93;;;;;;;24.32;86.88;94912.31;5092585;28;20598;-45
2023/07/15 05:08:12;;;;;;;11.60;8.25;;;;;;;24.49;86.87;94934.28;5092455;28;20679;-43
2023/07/15 05:10:39;;;;;;;16.58;8.15;;;;;;;24.58;85.99;94926.94;5092675;28;20752;-44
2023/07/15 05:13:06;;;;;;;11.68;8.38;;;;;;;24.74;85.86;94939.38;5092346;28;20197;-45
2023/07/15 05:15:33;;;;;;;9.57;8.68;;;;;;;24.91;84.74;94939.59;5092591;28;20201;-44
2023/07/15 05:18:00;;;;;;;10.00;8.50;;;;;;;25.10;83.69;94935.16;5091895;28;20668;-45
2023/07/15 05:20:27;;;;;;;11.27;7.85;;;;;;;25.33;82.91;94937.06;5092299;28;20194;-43
2023/07/15 05:22:54;;;;;;;18.42;8.48;;;;;;;25.68;81.55;94937.94;5092221;28;20205;-42
2023/07/15 05:25:22;;;;;;;11.52;8.82;;;;;;;25.90;80.07;94932.19;5092406;28;20272;-44
2023/07/15 05:27:48;;;;;;;10.20;8.73;;;;;;;26.22;78.39;94922.94;5091825;28;20193;-44
2023/07/15 05:30:15;;;;;;;16.85;8.13;;;;;;;26.49;76.94;94909.38;5091866;28;20318;-44
2023/07/15 05:32:42;;;;;;;15.50;8.82;;;;;;;26.89;75.60;94932.97;5091898;28;20194;-43
2023/07/15 05:35:09;;;;;;;15.50;8.90;;;;;;;27.08;74.46;94931.00;5091990;28;20194;-43
2023/07/15 05:37:35;;;;;;;11.80;8.85;;;;;;;27.26;73.90;94932.66;5091914;28;20193;-43
2023/07/15 05:40:08;;;;;;;10.35;8.00;;;;;;;27.51;73.36;94927.06;5092115;28;20661;-45
2023/07/15 05:42:36;;;;;;;12.70;8.07;;;;;;;27.99;71.85;94937.03;5091775;28;20193;-45
2023/07/15 05:45:03;;;;;;;12.93;8.80;;;;;;;28.36;69.53;94943.63;5091922;28;20194;-45
2023/07/15 05:47:30;;;;;;;12.43;8.15;;;;;;;28.36;68.83;94941.78;5091748;28;20190;-45
2023/07/15 05:49:57;;;;;;;15.57;8.90;;;;;;;28.44;68.89;94937.94;5091846;28;20595;-45
2023/07/15 05:52:24;;;;;;;20.23;8.60;;;;;;;28.73;68.22;94944.63;5091857;28;20259;-44
2023/07/15 05:54:51;;;;;;;9.15;8.07;;;;;;;28.99;67.57;94956.28;5091688;28;20266;-44
2023/07/15 05:57:17;;;;;;;10.90;8.20;;;;;;;29.26;65.67;94960.78;5091576;28;20657;-45
2023/07/15 05:59:46;;;;;;;11.45;7.55;;;;;;;29.17;65.64;94957.78;5091203;28;20194;-44
2023/07/15 06:02:13;;;;;;;10.20;8.57;;;;;;;29.12;65.18;94952.47;5091690;28;20212;-45
2023/07/15 06:04:40;;;;;;;13.95;8.80;;;;;;;29.36;65.35;94960.91;5091044;28;20194;-47
2023/07/15 06:07:06;;;;;;;10.23;9.07;;;;;;;29.68;64.32;94963.59;5091244;28;20749;-44
2023/07/15 06:09:33;;;;;;;19.35;9.07;;;;;;;29.99;62.92;94961.19;5091088;28;20225;-45
2023/07/15 06:12:00;;;;;;;13.05;8.38;;;;;;;29.99;62.68;94962.00;5091269;28;20258;-45
2023/07/15 06:14:27;;;;;;;16.67;8.88;;;;;;;30.04;62.56;94955.94;5091399;28;20664;-45
2023/07/15 06:16:55;;;;;;;13.32;8.77;;;;;;;30.29;61.50;94941.38;5091275;28;20193;-45
2023/07/15 06:19:22;;;;;;;12.52;8.13;;;;;;;30.57;61.68;94940.19;5090817;28;20197;-45
2023/07/15 06:21:48;;;;;;;17.02;7.65;;;;;;;30.98;60.64;94943.84;5091294;28;20660;-45
2023/07/15 06:24:15;;;;;;;15.15;8.13;;;;;;;31.47;58.69;94938.16;5090908;28;20197;-45
2023/07/15 06:26:42;;;;;;;11.85;8.80;;;;;;;31.66;56.62;94935.81;5090758;28;20619;-45
2023/07/15 06:29:09;;;;;;;10.82;7.68;;;;;;;31.80;56.56;94942.16;5090361;28;20274;-43
2023/07/15 06:31:35;;;;;;;9.10;8.10;;;;;;;32.04;56.39;94937.16;5090813;28;20661;-46
2023/07/15 06:34:03;;;;;;;15.98;8.27;;;;;;;32.32;55.08;94946.34;5090771;28;20200;-44
2023/07/15 06:36:30;;;;;;;10.20;7.95;;;;;;;32.48;54.02;94939.22;5090763;28;20194;-44
2023/07/15 06:38:57;;;;;;;11.43;8.77;;;;;;;32.61;53.49;94941.28;5090908;28;20189;-44
2023/07/15 06:41:24;;;;;;;10.68;8.25;;;;;;;32.68;53.48;94948.94;5090481;28;20625;-45
2023/07/15 06:43:51;;;;;;;8.07;7.28;;;;;;;32.89;53.45;94936.41;5090665;28;20656;-46
2023/07/15 06:46:17;;;;;;;15.30;8.55;;;;;;;33.09;53.05;94946.16;5090201;28;20274;-45
2023/07/15 06:48:45;;;;;;;12.43;8.20;;;;;;;33.30;51.72;94942.31;5090609;28;20567;-46
2023/07/15 06:51:14;;;;;;;12.13;8.77;;;;;;;33.15;51.55;94943.19;5090264;28;20189;-44
2023/07/15 06:53:41;;;;;;;9.93;8.10;;;;;;;33.20;51.69;94934.41;5090481;28;20204;-46
2023/07/15 06:56:08;;;;;;;13.10;8.30;;;;;;;33.47;51.03;94943.84;5090151;28;20648;-44
2023/07/15 06:58:35;;;;;;;14.10;8.60;;;;;;;33.60;51.06;94937.91;5090389;28;20193;-45
2023/07/15 07:01:01;;;;;;;9.02;8.07;;;;;;;33.78;50.47;94939.88;5090701;28;20190;-44
2023/07/15 07:03:28;;;;;;;11.45;8.10;;;;;;;33.83;49.17;94942.50;5090425;28;20193;-44
2023/07/15 07:05:55;;;;;;;13.35;8.38;;;;;;;33.52;49.31;94935.84;5090100;28;20223;-45
2023/07/15 07:08:23;;;;;;;15.85;8.80;;;;;;;33.61;49.77;94950.09;5090326;28;20193;-44
2023/07/15 07:10:51;;;;;;;10.77;8.23;;;;;;;33.57;49.38;94936.59;5090379;28;20403;-44
2023/07/15 07:13:18;;;;;;;12.13;8.85;;;;;;;33.76;48.69;94944.66;5089869;28;20204;-46
2023/07/15 07:15:44;;;;;;;12.65;8.32;;;;;;;33.72;48.93;94948.94;5090358;28;20247;-44
2023/07/15 07:18:12;;;;;;;11.70;7.80;;;;;;;33.75;49.28;94948.41;5090058;28;20634;-49
2023/07/15 07:20:39;;;;;;;11.15;8.40;;;;;;;34.04;48.72;94947.66;5090096;28;20224;-45
2023/07/15 07:23:06;;;;;;;16.35;8.82;;;;;;;34.09;48.43;94952.94;5089645;28;20196;-44
2023/07/15 07:25:34;;;;;;;13.15;8.73;;;;;;;34.10;48.43;94946.53;5089669;28;20572;-44
2023/07/15 07:28:00;;;;;;;12.00;7.13;;;;;;;34.29;47.97;94946.66;5089128;28;20262;-44
2023/07/15 07:30:28;;;;;;;16.60;8.57;;;;;;;34.42;47.10;94938.78;5089466;28;20229;-44
2023/07/15 07:32:55;;;;;;;9.07;7.90;;;;;;;34.57;47.44;94923.78;5089978;28;20284;-45
2023/07/15 07:35:21;;;;;;;9.10;8.20;;;;;;;34.79;47.07;94928.56;5089621;28;20568;-44
2023/07/15 07:37:49;;;;;;;9.35;8.40;;;;;;;35.00;46.41;94937.91;5089939;28;20197;-46
2023/07/15 07:40:16;;;;;;;10.65;8.18;;;;;;;35.18;45.98;94939.78;5089433;28;20273;-45
2023/07/15 07:42:44;;;;;;;12.98;8.20;;;;;;;35.21;45.04;94937.63;5089619;28;20742;-45
2023/07/15 07:45:15;;;;;;;10.15;8.50;;;;;;;35.15;45.18;94931.59;5089696;28;20546;-45
2023/07/15 07:47:42;;;;;;;12.38;8.32;;;;;;;35.33;44.90;94933.47;5089815;28;20193;-45
2023/07/15 07:50:09;;;;;;;13.02;8.02;;;;;;;35.26;45.26;94933.03;5089342;28;20730;-45
2023/07/15 07:52:36;;;;;;;11.43;7.65;;;;;;;35.24;45.44;94932.53;5089658;28;20198;-45
2023/07/15 07:55:04;;;;;;;10.95;8.00;;;;;;;35.40;45.42;94936.53;5089299;28;20345;-45
2023/07/15 07:57:30;;;;;;;11.63;8.57;;;;;;;35.50;44.55;94940.19;5089343;28;20213;-45
2023/07/15 07:59:59;;;;;;;10.57;7.85;;;;;;;35.33;45.12;94938.00;5089658;28;20204;-45
2023/07/15 08:02:25;;;;;;;16.83;8.20;;;;;;;35.26;45.20;94929.59;5089516;28;20250;-44
2023/07/15 08:04:52;;;;;;;10.75;8.25;;;;;;;35.28;45.58;94927.41;5091226;28;20245;-44
2023/07/15 08:07:19;;;;;;;14.50;8.15;;;;;;;35.41;45.36;94932.81;5090260;28;20259;-44
2023/07/15 08:09:46;;;;;;;11.05;8.57;;;;;;;35.55;45.52;94934.78;5089365;28;20221;-44
2023/07/15 08:12:13;;;;;;;12.45;8.27;;;;;;;35.64;45.48;94933.03;5089345;28;20683;-45
2023/07/15 08:14:39;;;;;;;10.40;8.68;;;;;;;35.62;44.47;94936.00;5089637;28;20208;-45
2023/07/15 08:17:08;;;;;;;13.18;8.65;;;;;;;35.20;45.85;94928.88;5089656;28;20193;-43
2023/07/15 08:19:34;;;;;;;11.98;8.50;;;;;;;35.11;46.33;94938.56;5089875;28;20580;-43
2023/07/15 08:22:01;;;;;;;15.38;8.82;;;;;;;35.06;46.29;94912.03;5089047;28;20258;-44
2023/07/15 08:24:28;;;;;;;9.48;8.30;;;;;;;35.27;45.76;94937.25;5089377;28;20201;-44
2023/07/15 08:26:55;;;;;;;10.68;8.60;;;;;;;35.21;46.38;94941.09;5089035;28;20185;-44
2023/07/15 08:29:21;;;;;;;12.52;8.35;;;;;;;35.24;45.89;94929.09;5089021;28;20225;-44
2023/07/15 08:31:48;;;;;;;9.10;8.20;;;;;;;35.42;45.14;94937.06;5089038;28;20190;-44
2023/07/15 08:34:16;;;;;;;8.75;7.85;;;;;;;35.49;45.17;94942.03;5089261;28;20204;-44
2023/07/15 08:36:43;;;;;;;11.60;8.80;;;;;;;35.57;44.67;94941.38;5089005;28;20190;-45
2023/07/15 08:39:10;;;;;;;16.65;9.38;;;;;;;35.60;44.59;94943.47;5092927;28;20216;-44
2023/07/15 08:41:38;;;;;;;13.07;8.35;;;;;;;35.37;45.20;94920.41;5092754;28;20250;-45
2023/07/15 08:44:05;;;;;;;9.55;8.35;;;;;;;35.52;44.63;94940.69;5092995;28;20288;-45
2023/07/15 08:46:32;;;;;;;9.65;7.85;;;;;;;35.52;44.41;94930.81;5093094;28;20190;-44
2023/07/15 08:49:00;;;;;;;10.52;8.15;;;;;;;35.56;44.34;94936.34;5093009;28;20251;-45
2023/07/15 08:51:31;;;;;;;13.65;7.90;;;;;;;35.38;44.76;94906.78;5092767;28;20443;-45
2023/07/15 08:54:01;;;;;;;11.18;7.53;;;;;;;35.64;43.94;94933.84;5092703;28;20197;-43
2023/07/15 08:56:29;;;;;;;11.38;8.13;;;;;;;35.56;43.82;94936.34;5092782;28;20767;-45
2023/07/15 08:58:57;;;;;;;13.38;7.57;;;;;;;35.66;43.50;94933.53;5092642;28;20652;-44
2023/07/15 09:01:24;;;;;;;11.57;8.07;;;;;;;35.57;43.84;94930.75;5092872;28;20254;-45
2023/07/15 09:03:51;;;;;;;12.13;7.45;;;;;;;35.46;44.14;94923.19;5092430;28;20193;-45
2023/07/15 09:06:18;;;;;;;9.32;7.88;;;;;;;35.39;44.27;94921.66;5092486;28;20186;-45
2023/07/15 09:08:50;;;;;;;14.23;8.93;;;;;;;35.43;44.03;94928.00;5092278;28;20197;-46
2023/07/15 09:11:17;;;;;;;11.93;8.35;;;;;;;35.49;43.93;94933.25;5092862;28;20253;-45
2023/07/15 09:13:45;;;;;;;11.68;8.32;;;;;;;35.50;43.65;94930.34;5092358;28;20223;-44
2023/07/15 09:16:11;;;;;;;10.50;7.45;;;;;;;35.31;44.31;94932.16;5092465;28;20217;-45
2023/07/15 09:18:40;;;;;;;9.73;8.13;;;;;;;34.98;44.72;94907.38;5092201;28;20193;-45
2023/07/15 09:21:11;;;;;;;14.93;8.13;;;;;;;34.97;45.37;94917.19;5092270;28;20753;-43
2023/07/15 09:23:40;;;;;;;9.85;8.05;;;;;;;35.03;45.66;94926.72;5091809;28;20280;-44
2023/07/15 09:26:09;;;;;;;8.55;7.72;;;;;;;34.90;45.39;94920.19;5091978;28;20561;-44
2023/07/15 09:28:35;;;;;;;11.52;8.82;;;;;;;34.56;46.02;94915.03;5091747;28;20801;-44
2023/07/15 09:31:02;;;;;;;11.35;7.90;;;;;;;34.55;47.17;94924.06;5092002;28;20221;-44
2023/07/15 09:33:32;;;;;;;9.43;8.45;;;;;;;34.64;46.69;94916.28;5091736;28;20185;-45
2023/07/15 09:35:59;;;;;;;9.90;8.73;;;;;;;34.70;46.50;94915.13;5092038;28;20280;-43
2023/07/15 09:38:32;;;;;;;10.07;8.90;;;;;;;34.83;46.21;94901.13;5091519;28;20189;-45
2023/07/15 09:40:59;;;;;;;14.20;9.30;;;;;;;34.90;46.24;94904.25;5092042;28;20193;-45
2023/07/15 09:43:45;;;;;;;11.88;9.45;;;;;;;34.73;46.58;94908.47;5091747;28;20719;-44
2023/07/15 09:46:14;;;;;;;13.90;8.52;;;;;;;34.63;46.44;94909.34;5091916;28;20734;-45
2023/07/15 09:48:42;;;;;;;12.98;9.18;;;;;;;34.64;46.24;94901.13;5091122;28;20335;-45
2023/07/15 09:51:11;;;;;;;13.32;8.98;;;;;;;34.63;46.31;94901.38;5091368;28;20232;-45
2023/07/15 09:53:39;;;;;;;17.95;9.38;;;;;;;34.51;46.92;94896.50;5092164;28;20200;-45
2023/07/15 09:56:07;;;;;;;12.73;8.80;;;;;;;34.40;47.55;94893.13;5092020;28;20576;-46
2023/07/15 09:58:37;;;;;;;10.80;9.35;;;;;;;34.46;47.60;94893.88;5091353;28;20194;-44
2023/07/15 10:01:07;;;;;;;12.23;9.05;;;;;;;34.21;47.43;94879.00;5091725;28;20193;-44
2023/07/15 10:03:44;;;;;;;12.77;8.50;;;;;;;34.42;47.54;94895.50;5091199;28;20190;-46
2023/07/15 10:06:12;;;;;;;12.10;9.25;;;;;;;34.37;47.51;94895.53;5091500;28;20228;-45
2023/07/15 10:08:39;;;;;;;13.18;9.60;;;;;;;34.28;47.57;94891.94;5091123;28;20281;-44
2023/07/15 10:11:06;;;;;;;11.48;8.98;;;;;;;34.14;47.48;94889.94;5091477;28;20225;-45
2023/07/15 10:13:34;;;;;;;16.50;9.77;;;;;;;34.13;47.58;94887.59;5091002;28;20271;-43
2023/07/15 10:16:03;;;;;;;11.50;8.77;;;;;;;34.14;47.50;94887.28;5107462;28;20651;-44
2023/07/15 10:18:32;;;;;;;10.57;9.48;;;;;;;34.17;47.31;94894.69;5100369;28;20732;-45
2023/07/15 10:21:02;;;;;;;15.70;9.68;;;;;;;33.74;47.74;94808.84;5110145;28;20677;-43
2023/07/15 10:23:30;;;;;;;13.00;9.82;;;;;;;34.26;47.71;94880.81;5091315;28;20182;-44
2023/07/15 10:26:03;;;;;;;15.73;9.55;;;;;;;34.34;47.96;94882.84;5090994;28;20178;-45
2023/07/15 10:28:33;;;;;;;11.77;9.43;;;;;;;34.45;47.92;94882.44;5091002;28;20232;-43
2023/07/15 10:31:09;;;;;;;19.13;9.75;;;;;;;34.41;47.66;94876.13;5091058;28;20630;-43
2023/07/15 10:33:37;;;;;;;11.98;9.68;;;;;;;34.28;47.89;94874.13;5091035;28;20177;-44
2023/07/15 10:36:06;;;;;;;16.35;9.85;;;;;;;34.18;47.66;94883.00;5090917;28;20653;-44
2023/07/15 10:38:33;;;;;;;12.27;8.98;;;;;;;34.08;47.55;94883.13;5090826;28;20194;-45
2023/07/15 10:41:02;;;;;;;11.52;8.60;;;;;;;33.98;47.84;94872.59;5090702;28;20194;-44
2023/07/15 10:43:40;;;;;;;16.38;9.05;;;;;;;33.93;47.98;94885.88;5090691;28;20569;-46
2023/07/15 10:46:09;;;;;;;16.13;9.35;;;;;;;33.91;47.76;94885.38;5090989;28;20217;-44
2023/07/15 10:48:37;;;;;;;11.50;9.10;;;;;;;33.99;47.93;94881.34;5090629;28;20676;-44
2023/07/15 10:51:07;;;;;;;11.63;8.25;;;;;;;33.90;48.08;94878.50;5090377;28;20308;-44
2023/07/15 10:53:34;;;;;;;9.98;8.73;;;;;;;33.89;47.53;94876.88;5090401;28;20676;-44
2023/07/15 10:56:02;;;;;;;12.43;9.23;;;;;;;33.98;47.15;94877.88;5090349;28;20200;-45
2023/07/15 10:58:32;;;;;;;11.60;9.23;;;;;;;33.88;47.26;94876.09;5090552;28;20189;-44
2023/07/15 11:01:01;;;;;;;12.07;10.15;;;;;;;33.73;47.64;94875.47;5089239;28;20193;-44
2023/07/15 11:03:30;;;;;;;19.25;9.77;;;;;;;33.59;47.57;94872.66;5090608;28;20220;-44
2023/07/15 11:05:58;;;;;;;13.75;9.27;;;;;;;33.53;48.08;94869.25;5090216;28;20193;-45
2023/07/15 11:08:25;;;;;;;12.18;8.88;;;;;;;33.56;48.43;94868.69;5090479;28;20198;-46
2023/07/15 11:10:58;;;;;;;11.55;9.75;;;;;;;33.45;48.23;94859.22;5090342;28;20213;-45
2023/07/15 11:13:25;;;;;;;10.65;8.93;;;;;;;33.37;49.06;94855.28;5090598;28;20568;-46
2023/07/15 11:15:52;;;;;;;14.73;9.90;;;;;;;33.31;49.77;94858.25;5090000;28;20660;-45
2023/07/15 11:18:21;;;;;;;14.82;9.75;;;;;;;33.36;49.92;94858.22;5090285;28;20182;-46
2023/07/15 11:20:50;;;;;;;11.15;9.25;;;;;;;33.38;49.74;94851.59;5089783;28;20724;-45
2023/07/15 11:23:18;;;;;;;14.75;9.43;;;;;;;33.41;49.60;94860.81;5089858;28;20182;-45
2023/07/15 11:25:45;;;;;;;12.88;10.02;;;;;;;33.48;49.61;94848.06;5089957;28;20649;-44
2023/07/15 11:28:12;;;;;;;11.68;9.70;;;;;;;33.61;49.83;94849.31;5089820;28;20197;-46